sensor_id;sensor_type;location;lat;lon;timestamp;temperature;humidity
15343;DHT22;7771;48.478;8.936;2023-02-11T00:02:00;0.20;99.90
15343;DHT22;7771;48.478;8.936;2023-02-11T00:04:27;0.20;99.90
15343;DHT22;7771;48.478;8.936;2023-02-11T00:06:55;0.20;99.90
15343;DHT22;7771;48.478;8.936;2023-02-11T00:09:22;0.10;99.90
15343;DHT22;7771;48.478;8.936;2023-02-11T00:11:49;0.10;99.90
15343;DHT22;7771;48.478;8.936;2023-02-11T00:14:16;0.10;99.90
15343;DHT22;7771;48.478;8.936;2023-02-11T00:16:43;0.10;99.90
15343;DHT22;7771;48.478;8.936;2023-02-11T00:19:11;0.00;99.90
15343;DHT22;7771;48.478;8.936;2023-02-11T00:21:38;0.00;99.90
15343;DHT22;7771;48.478;8.936;2023-02-11T00:26:33;0.00;99.90
15343;DHT22;7771;48.478;8.936;2023-02-11T00:28:59;0.00;99.90
15343;DHT22;7771;48.478;8.936;2023-02-11T00:31:26;-0.10;99.90
15343;DHT22;7771;48.478;8.936;2023-02-11T00:33:54;-0.10;99.90
15343;DHT22;7771;48.478;8.936;2023-02-11T00:36:23;-0.10;99.90
15343;DHT22;7771;48.478;8.936;2023-02-11T00:38:48;-0.10;99.90
15343;DHT22;7771;48.478;8.936;2023-02-11T00:41:16;-0.10;99.90
15343;DHT22;7771;48.478;8.936;2023-02-11T00:43:44;-0.20;99.90
15343;DHT22;7771;48.478;8.936;2023-02-11T00:46:12;-0.20;99.90
15343;DHT22;7771;48.478;8.936;2023-02-11T00:48:39;-0.20;99.90
15343;DHT22;7771;48.478;8.936;2023-02-11T00:53:34;-0.20;99.90
15343;DHT22;7771;48.478;8.936;2023-02-11T00:56:02;-0.20;99.90
15343;DHT22;7771;48.478;8.936;2023-02-11T00:58:29;-0.20;99.90
15343;DHT22;7771;48.478;8.936;2023-02-11T01:00:56;-0.30;99.90
15343;DHT22;7771;48.478;8.936;2023-02-11T01:03:23;-0.20;99.90
15343;DHT22;7771;48.478;8.936;2023-02-11T01:05:49;-0.30;99.90
15343;DHT22;7771;48.478;8.936;2023-02-11T01:08:17;-0.40;99.90
15343;DHT22;7771;48.478;8.936;2023-02-11T01:13:12;-0.30;99.90
15343;DHT22;7771;48.478;8.936;2023-02-11T01:15:39;-0.40;99.90
15343;DHT22;7771;48.478;8.936;2023-02-11T01:18:06;-0.50;99.90
15343;DHT22;7771;48.478;8.936;2023-02-11T01:23:01;-0.50;99.90
15343;DHT22;7771;48.478;8.936;2023-02-11T01:25:28;-0.50;99.90
15343;DHT22;7771;48.478;8.936;2023-02-11T01:27:54;-0.50;99.90
15343;DHT22;7771;48.478;8.936;2023-02-11T01:30:22;-0.60;99.90
15343;DHT22;7771;48.478;8.936;2023-02-11T01:32:48;-0.60;99.90
15343;DHT22;7771;48.478;8.936;2023-02-11T01:35:15;-0.70;99.90
15343;DHT22;7771;48.478;8.936;2023-02-11T01:37:42;-0.70;99.90
15343;DHT22;7771;48.478;8.936;2023-02-11T01:40:13;-0.80;99.90
15343;DHT22;7771;48.478;8.936;2023-02-11T01:42:37;-0.80;99.90
15343;DHT22;7771;48.478;8.936;2023-02-11T01:47:44;-0.80;99.90
15343;DHT22;7771;48.478;8.936;2023-02-11T01:50:11;-0.80;99.90
15343;DHT22;7771;48.478;8.936;2023-02-11T01:52:38;-0.80;99.90
15343;DHT22;7771;48.478;8.936;2023-02-11T01:57:41;-0.80;99.90
15343;DHT22;7771;48.478;8.936;2023-02-11T02:00:12;-0.80;99.90
15343;DHT22;7771;48.478;8.936;2023-02-11T02:05:15;-0.80;99.90
15343;DHT22;7771;48.478;8.936;2023-02-11T02:07:44;-0.80;99.90
15343;DHT22;7771;48.478;8.936;2023-02-11T02:10:12;-0.80;99.90
15343;DHT22;7771;48.478;8.936;2023-02-11T02:12:35;-0.80;99.90
15343;DHT22;7771;48.478;8.936;2023-02-11T02:15:18;-0.70;99.90
15343;DHT22;7771;48.478;8.936;2023-02-11T02:17:49;-0.60;99.90
15343;DHT22;7771;48.478;8.936;2023-02-11T02:20:21;-0.70;99.90
15343;DHT22;7771;48.478;8.936;2023-02-11T02:22:52;-0.70;99.90
15343;DHT22;7771;48.478;8.936;2023-02-11T02:25:27;-0.60;99.90
15343;DHT22;7771;48.478;8.936;2023-02-11T02:30:42;-0.60;99.90
15343;DHT22;7771;48.478;8.936;2023-02-11T02:33:08;-0.60;99.90
15343;DHT22;7771;48.478;8.936;2023-02-11T02:35:40;-0.70;99.90
15343;DHT22;7771;48.478;8.936;2023-02-11T02:38:26;-0.70;99.90
15343;DHT22;7771;48.478;8.936;2023-02-11T02:41:00;-0.70;99.90
15343;DHT22;7771;48.478;8.936;2023-02-11T02:43:25;-0.60;99.90
15343;DHT22;7771;48.478;8.936;2023-02-11T02:45:51;-0.60;99.90
15343;DHT22;7771;48.478;8.936;2023-02-11T02:48:25;-0.70;99.90
15343;DHT22;7771;48.478;8.936;2023-02-11T02:50:51;-0.70;99.90
15343;DHT22;7771;48.478;8.936;2023-02-11T02:53:26;-0.70;99.90
15343;DHT22;7771;48.478;8.936;2023-02-11T02:55:58;-0.70;99.90
15343;DHT22;7771;48.478;8.936;2023-02-11T03:01:02;-0.70;99.90
15343;DHT22;7771;48.478;8.936;2023-02-11T03:03:47;-0.70;99.90
15343;DHT22;7771;48.478;8.936;2023-02-11T03:06:20;-0.70;99.90
15343;DHT22;7771;48.478;8.936;2023-02-11T03:08:48;-0.70;99.90
15343;DHT22;7771;48.478;8.936;2023-02-11T03:11:14;-0.70;99.90
15343;DHT22;7771;48.478;8.936;2023-02-11T03:13:41;-0.70;99.90
15343;DHT22;7771;48.478;8.936;2023-02-11T03:16:11;-0.70;99.90
15343;DHT22;7771;48.478;8.936;2023-02-11T03:18:36;-0.70;99.90
15343;DHT22;7771;48.478;8.936;2023-02-11T03:21:02;-0.80;99.90
15343;DHT22;7771;48.478;8.936;2023-02-11T03:23:32;-0.80;99.90
15343;DHT22;7771;48.478;8.936;2023-02-11T03:25:58;-0.80;99.90
15343;DHT22;7771;48.478;8.936;2023-02-11T03:28:32;-0.80;99.90
15343;DHT22;7771;48.478;8.936;2023-02-11T03:31:17;-0.70;99.90
15343;DHT22;7771;48.478;8.936;2023-02-11T03:33:54;-0.70;99.90
15343;DHT22;7771;48.478;8.936;2023-02-11T03:38:50;-0.90;99.90
15343;DHT22;7771;48.478;8.936;2023-02-11T03:41:17;-0.90;99.90
15343;DHT22;7771;48.478;8.936;2023-02-11T03:43:44;-0.90;99.90
15343;DHT22;7771;48.478;8.936;2023-02-11T03:46:10;-1.00;99.90
15343;DHT22;7771;48.478;8.936;2023-02-11T03:48:37;-0.90;99.90
15343;DHT22;7771;48.478;8.936;2023-02-11T03:51:04;-0.90;99.90
15343;DHT22;7771;48.478;8.936;2023-02-11T03:53:31;-1.00;99.90
15343;DHT22;7771;48.478;8.936;2023-02-11T03:55:59;-1.00;99.90
15343;DHT22;7771;48.478;8.936;2023-02-11T03:58:25;-1.00;99.90
15343;DHT22;7771;48.478;8.936;2023-02-11T04:00:52;-0.90;99.90
15343;DHT22;7771;48.478;8.936;2023-02-11T04:03:19;-1.00;99.90
15343;DHT22;7771;48.478;8.936;2023-02-11T04:05:46;-1.00;99.90
15343;DHT22;7771;48.478;8.936;2023-02-11T04:08:12;-1.00;99.90
15343;DHT22;7771;48.478;8.936;2023-02-11T04:10:39;-1.00;99.90
15343;DHT22;7771;48.478;8.936;2023-02-11T04:13:06;-1.00;99.90
15343;DHT22;7771;48.478;8.936;2023-02-11T04:15:33;-1.00;99.90
15343;DHT22;7771;48.478;8.936;2023-02-11T04:18:00;-1.00;99.90
15343;DHT22;7771;48.478;8.936;2023-02-11T04:20:27;-1.00;99.90
15343;DHT22;7771;48.478;8.936;2023-02-11T04:22:53;-0.90;99.90
15343;DHT22;7771;48.478;8.936;2023-02-11T04:25:20;-1.00;99.90
15343;DHT22;7771;48.478;8.936;2023-02-11T04:27:47;-0.90;99.90
15343;DHT22;7771;48.478;8.936;2023-02-11T04:30:13;-1.00;99.90
15343;DHT22;7771;48.478;8.936;2023-02-11T04:32:40;-0.90;99.90
15343;DHT22;7771;48.478;8.936;2023-02-11T04:35:07;-0.90;99.90
15343;DHT22;7771;48.478;8.936;2023-02-11T04:37:34;-0.90;99.90
15343;DHT22;7771;48.478;8.936;2023-02-11T04:40:00;-0.80;99.90
15343;DHT22;7771;48.478;8.936;2023-02-11T04:42:27;-0.90;99.90
15343;DHT22;7771;48.478;8.936;2023-02-11T04:44:54;-0.90;99.90
15343;DHT22;7771;48.478;8.936;2023-02-11T04:47:21;-0.90;99.90
15343;DHT22;7771;48.478;8.936;2023-02-11T04:49:49;-0.80;99.90
15343;DHT22;7771;48.478;8.936;2023-02-11T04:52:15;-0.80;99.90
15343;DHT22;7771;48.478;8.936;2023-02-11T04:54:42;-0.80;99.90
15343;DHT22;7771;48.478;8.936;2023-02-11T04:57:09;-0.70;99.90
15343;DHT22;7771;48.478;8.936;2023-02-11T04:59:35;-0.70;99.90
15343;DHT22;7771;48.478;8.936;2023-02-11T05:02:02;-0.70;99.90
15343;DHT22;7771;48.478;8.936;2023-02-11T05:04:30;-0.60;99.90
15343;DHT22;7771;48.478;8.936;2023-02-11T05:06:57;-0.60;99.90
15343;DHT22;7771;48.478;8.936;2023-02-11T05:09:23;-0.60;99.90
15343;DHT22;7771;48.478;8.936;2023-02-11T05:11:50;-0.60;99.90
15343;DHT22;7771;48.478;8.936;2023-02-11T05:14:16;-0.60;99.90
15343;DHT22;7771;48.478;8.936;2023-02-11T05:16:44;-0.60;99.90
15343;DHT22;7771;48.478;8.936;2023-02-11T05:19:11;-0.60;99.90
15343;DHT22;7771;48.478;8.936;2023-02-11T05:21:38;-0.60;99.90
15343;DHT22;7771;48.478;8.936;2023-02-11T05:24:05;-0.60;99.90
15343;DHT22;7771;48.478;8.936;2023-02-11T05:26:32;-0.60;99.90
15343;DHT22;7771;48.478;8.936;2023-02-11T05:29:00;-0.50;99.90
15343;DHT22;7771;48.478;8.936;2023-02-11T05:31:27;-0.50;99.90
15343;DHT22;7771;48.478;8.936;2023-02-11T05:33:53;-0.50;99.90
15343;DHT22;7771;48.478;8.936;2023-02-11T05:36:20;-0.50;99.90
15343;DHT22;7771;48.478;8.936;2023-02-11T05:41:15;-0.40;99.90
15343;DHT22;7771;48.478;8.936;2023-02-11T05:43:41;-0.30;99.90
15343;DHT22;7771;48.478;8.936;2023-02-11T05:46:08;-0.30;99.90
15343;DHT22;7771;48.478;8.936;2023-02-11T05:48:35;-0.20;99.90
15343;DHT22;7771;48.478;8.936;2023-02-11T05:51:02;-0.20;99.90
15343;DHT22;7771;48.478;8.936;2023-02-11T05:53:30;-0.20;99.90
15343;DHT22;7771;48.478;8.936;2023-02-11T05:55:56;-0.20;99.90
15343;DHT22;7771;48.478;8.936;2023-02-11T05:58:23;-0.10;99.90
15343;DHT22;7771;48.478;8.936;2023-02-11T06:00:50;0.00;99.90
15343;DHT22;7771;48.478;8.936;2023-02-11T06:03:16;0.00;99.90
15343;DHT22;7771;48.478;8.936;2023-02-11T06:05:43;0.00;99.90
15343;DHT22;7771;48.478;8.936;2023-02-11T06:08:10;0.10;99.90
15343;DHT22;7771;48.478;8.936;2023-02-11T06:10:36;0.10;99.90
15343;DHT22;7771;48.478;8.936;2023-02-11T06:13:03;0.20;99.90
15343;DHT22;7771;48.478;8.936;2023-02-11T06:15:29;0.20;99.90
15343;DHT22;7771;48.478;8.936;2023-02-11T06:17:56;0.20;99.90
15343;DHT22;7771;48.478;8.936;2023-02-11T06:20:23;0.20;99.90
15343;DHT22;7771;48.478;8.936;2023-02-11T06:22:50;0.20;99.90
15343;DHT22;7771;48.478;8.936;2023-02-11T06:25:17;0.20;99.90
15343;DHT22;7771;48.478;8.936;2023-02-11T06:27:45;0.30;99.90
15343;DHT22;7771;48.478;8.936;2023-02-11T06:30:12;0.30;99.90
15343;DHT22;7771;48.478;8.936;2023-02-11T06:32:39;0.30;99.90
15343;DHT22;7771;48.478;8.936;2023-02-11T06:35:06;0.40;99.90
15343;DHT22;7771;48.478;8.936;2023-02-11T06:37:34;0.50;99.90
15343;DHT22;7771;48.478;8.936;2023-02-11T06:40:01;0.50;99.90
15343;DHT22;7771;48.478;8.936;2023-02-11T06:42:27;0.60;99.90
15343;DHT22;7771;48.478;8.936;2023-02-11T06:44:55;0.60;99.90
15343;DHT22;7771;48.478;8.936;2023-02-11T06:47:22;0.70;99.90
15343;DHT22;7771;48.478;8.936;2023-02-11T06:49:49;0.70;99.90
15343;DHT22;7771;48.478;8.936;2023-02-11T06:52:17;0.70;99.90
15343;DHT22;7771;48.478;8.936;2023-02-11T06:54:43;0.70;99.90
15343;DHT22;7771;48.478;8.936;2023-02-11T06:57:10;0.70;99.90
15343;DHT22;7771;48.478;8.936;2023-02-11T06:59:38;0.70;99.90
15343;DHT22;7771;48.478;8.936;2023-02-11T07:02:05;0.60;99.90
15343;DHT22;7771;48.478;8.936;2023-02-11T07:04:32;0.60;99.90
15343;DHT22;7771;48.478;8.936;2023-02-11T07:06:59;0.60;99.90
15343;DHT22;7771;48.478;8.936;2023-02-11T07:09:26;0.70;99.90
15343;DHT22;7771;48.478;8.936;2023-02-11T07:11:53;0.70;99.90
15343;DHT22;7771;48.478;8.936;2023-02-11T07:14:22;0.70;99.90
15343;DHT22;7771;48.478;8.936;2023-02-11T07:16:48;0.70;99.90
15343;DHT22;7771;48.478;8.936;2023-02-11T07:19:16;0.70;99.90
15343;DHT22;7771;48.478;8.936;2023-02-11T07:21:43;0.80;99.90
15343;DHT22;7771;48.478;8.936;2023-02-11T07:24:09;0.80;99.90
15343;DHT22;7771;48.478;8.936;2023-02-11T07:26:36;0.80;99.90
15343;DHT22;7771;48.478;8.936;2023-02-11T07:29:02;0.90;99.90
15343;DHT22;7771;48.478;8.936;2023-02-11T07:31:29;0.90;99.90
15343;DHT22;7771;48.478;8.936;2023-02-11T07:33:57;1.00;99.90
15343;DHT22;7771;48.478;8.936;2023-02-11T07:36:23;1.00;99.90
15343;DHT22;7771;48.478;8.936;2023-02-11T07:38:50;1.10;99.90
15343;DHT22;7771;48.478;8.936;2023-02-11T07:41:18;1.10;99.90
15343;DHT22;7771;48.478;8.936;2023-02-11T07:43:45;1.10;99.90
15343;DHT22;7771;48.478;8.936;2023-02-11T07:46:15;1.20;99.90
15343;DHT22;7771;48.478;8.936;2023-02-11T07:48:41;1.20;99.90
15343;DHT22;7771;48.478;8.936;2023-02-11T07:51:13;1.30;99.90
15343;DHT22;7771;48.478;8.936;2023-02-11T07:53:40;1.30;99.90
15343;DHT22;7771;48.478;8.936;2023-02-11T07:56:07;1.40;99.90
15343;DHT22;7771;48.478;8.936;2023-02-11T07:58:33;1.40;99.90
15343;DHT22;7771;48.478;8.936;2023-02-11T08:01:03;1.40;99.90
15343;DHT22;7771;48.478;8.936;2023-02-11T08:03:30;1.50;99.90
15343;DHT22;7771;48.478;8.936;2023-02-11T08:05:56;1.60;99.90
15343;DHT22;7771;48.478;8.936;2023-02-11T08:08:25;1.60;99.90
15343;DHT22;7771;48.478;8.936;2023-02-11T08:10:52;1.70;99.90
15343;DHT22;7771;48.478;8.936;2023-02-11T08:13:19;1.80;99.90
15343;DHT22;7771;48.478;8.936;2023-02-11T08:15:46;1.80;99.90
15343;DHT22;7771;48.478;8.936;2023-02-11T08:18:13;1.90;99.90
15343;DHT22;7771;48.478;8.936;2023-02-11T08:20:40;2.00;99.90
15343;DHT22;7771;48.478;8.936;2023-02-11T08:23:08;2.10;99.90
15343;DHT22;7771;48.478;8.936;2023-02-11T08:25:35;2.10;99.90
15343;DHT22;7771;48.478;8.936;2023-02-11T08:28:02;2.30;99.90
15343;DHT22;7771;48.478;8.936;2023-02-11T08:30:30;2.30;99.90
15343;DHT22;7771;48.478;8.936;2023-02-11T08:32:57;2.30;99.90
15343;DHT22;7771;48.478;8.936;2023-02-11T08:35:24;2.50;99.90
15343;DHT22;7771;48.478;8.936;2023-02-11T08:37:52;2.60;99.90
15343;DHT22;7771;48.478;8.936;2023-02-11T08:40:19;2.70;99.90
15343;DHT22;7771;48.478;8.936;2023-02-11T08:42:46;3.00;99.90
15343;DHT22;7771;48.478;8.936;2023-02-11T08:45:13;3.20;99.90
15343;DHT22;7771;48.478;8.936;2023-02-11T08:47:41;3.50;99.90
15343;DHT22;7771;48.478;8.936;2023-02-11T08:50:08;3.80;99.90
15343;DHT22;7771;48.478;8.936;2023-02-11T08:52:35;4.10;99.90
15343;DHT22;7771;48.478;8.936;2023-02-11T08:55:02;4.40;99.90
15343;DHT22;7771;48.478;8.936;2023-02-11T08:57:29;4.80;99.90
15343;DHT22;7771;48.478;8.936;2023-02-11T08:59:56;5.10;99.90
15343;DHT22;7771;48.478;8.936;2023-02-11T09:02:22;5.30;99.90
15343;DHT22;7771;48.478;8.936;2023-02-11T09:04:49;5.50;99.90
15343;DHT22;7771;48.478;8.936;2023-02-11T09:07:16;5.80;99.90
15343;DHT22;7771;48.478;8.936;2023-02-11T09:09:43;6.00;99.90
15343;DHT22;7771;48.478;8.936;2023-02-11T09:12:09;6.20;99.90
15343;DHT22;7771;48.478;8.936;2023-02-11T09:14:37;6.40;99.90
15343;DHT22;7771;48.478;8.936;2023-02-11T09:17:04;6.60;99.90
15343;DHT22;7771;48.478;8.936;2023-02-11T09:19:31;6.80;99.90
15343;DHT22;7771;48.478;8.936;2023-02-11T09:21:58;6.80;99.90
15343;DHT22;7771;48.478;8.936;2023-02-11T09:24:25;6.80;99.90
15343;DHT22;7771;48.478;8.936;2023-02-11T09:26:51;6.80;99.90
15343;DHT22;7771;48.478;8.936;2023-02-11T09:29:18;6.70;99.90
15343;DHT22;7771;48.478;8.936;2023-02-11T09:31:45;6.80;99.90
15343;DHT22;7771;48.478;8.936;2023-02-11T09:34:12;6.80;99.90
15343;DHT22;7771;48.478;8.936;2023-02-11T09:36:39;6.80;99.90
15343;DHT22;7771;48.478;8.936;2023-02-11T09:39:11;6.70;99.90
15343;DHT22;7771;48.478;8.936;2023-02-11T09:41:41;6.70;99.90
15343;DHT22;7771;48.478;8.936;2023-02-11T09:44:07;6.70;99.90
15343;DHT22;7771;48.478;8.936;2023-02-11T09:46:35;6.70;99.90
15343;DHT22;7771;48.478;8.936;2023-02-11T09:49:00;6.80;99.90
15343;DHT22;7771;48.478;8.936;2023-02-11T09:54:06;7.00;99.90
15343;DHT22;7771;48.478;8.936;2023-02-11T09:56:31;7.10;99.90
15343;DHT22;7771;48.478;8.936;2023-02-11T09:58:58;7.20;99.90
15343;DHT22;7771;48.478;8.936;2023-02-11T10:01:29;7.30;99.90
15343;DHT22;7771;48.478;8.936;2023-02-11T10:04:13;7.40;99.90
15343;DHT22;7771;48.478;8.936;2023-02-11T10:06:41;7.40;99.90
15343;DHT22;7771;48.478;8.936;2023-02-11T10:09:27;7.50;99.90
15343;DHT22;7771;48.478;8.936;2023-02-11T10:14:33;7.60;99.90
15343;DHT22;7771;48.478;8.936;2023-02-11T10:19:59;7.80;99.90
15343;DHT22;7771;48.478;8.936;2023-02-11T10:22:30;7.90;99.90
15343;DHT22;7771;48.478;8.936;2023-02-11T10:24:56;8.00;99.90
15343;DHT22;7771;48.478;8.936;2023-02-11T10:27:31;8.10;99.90
15343;DHT22;7771;48.478;8.936;2023-02-11T10:30:00;8.10;99.90
15343;DHT22;7771;48.478;8.936;2023-02-11T10:32:37;8.20;99.90
15343;DHT22;7771;48.478;8.936;2023-02-11T10:35:09;8.10;99.90
15343;DHT22;7771;48.478;8.936;2023-02-11T10:37:31;8.30;99.90
15343;DHT22;7771;48.478;8.936;2023-02-11T10:39:58;8.40;99.90
15343;DHT22;7771;48.478;8.936;2023-02-11T10:42:25;8.30;99.90
15343;DHT22;7771;48.478;8.936;2023-02-11T10:44:58;8.30;99.90
15343;DHT22;7771;48.478;8.936;2023-02-11T10:47:24;8.50;99.90
15343;DHT22;7771;48.478;8.936;2023-02-11T10:49:50;8.50;99.90
15343;DHT22;7771;48.478;8.936;2023-02-11T10:52:21;8.60;99.90
15343;DHT22;7771;48.478;8.936;2023-02-11T10:54:57;8.70;99.90
15343;DHT22;7771;48.478;8.936;2023-02-11T10:57:25;8.80;99.90
15343;DHT22;7771;48.478;8.936;2023-02-11T10:59:50;8.90;99.90
15343;DHT22;7771;48.478;8.936;2023-02-11T11:02:35;8.90;99.90
15343;DHT22;7771;48.478;8.936;2023-02-11T11:05:03;9.00;99.90
15343;DHT22;7771;48.478;8.936;2023-02-11T11:07:28;9.10;99.90
15343;DHT22;7771;48.478;8.936;2023-02-11T11:09:58;9.20;99.90
15343;DHT22;7771;48.478;8.936;2023-02-11T11:12:31;9.30;99.90
15343;DHT22;7771;48.478;8.936;2023-02-11T11:14:57;9.30;99.90
15343;DHT22;7771;48.478;8.936;2023-02-11T11:17:22;9.40;99.90
15343;DHT22;7771;48.478;8.936;2023-02-11T11:19:49;9.50;99.90
15343;DHT22;7771;48.478;8.936;2023-02-11T11:22:19;9.50;99.90
15343;DHT22;7771;48.478;8.936;2023-02-11T11:24:45;9.60;99.90
15343;DHT22;7771;48.478;8.936;2023-02-11T11:27:18;9.70;99.90
15343;DHT22;7771;48.478;8.936;2023-02-11T11:29:46;9.70;99.90
15343;DHT22;7771;48.478;8.936;2023-02-11T11:32:19;9.80;99.90
15343;DHT22;7771;48.478;8.936;2023-02-11T11:34:48;9.90;99.90
15343;DHT22;7771;48.478;8.936;2023-02-11T11:37:19;9.90;99.90
15343;DHT22;7771;48.478;8.936;2023-02-11T11:39:52;10.00;99.90
15343;DHT22;7771;48.478;8.936;2023-02-11T11:42:23;10.10;99.90
15343;DHT22;7771;48.478;8.936;2023-02-11T11:44:55;10.20;99.90
15343;DHT22;7771;48.478;8.936;2023-02-11T11:47:19;10.20;99.90
15343;DHT22;7771;48.478;8.936;2023-02-11T11:49:53;10.30;99.90
15343;DHT22;7771;48.478;8.936;2023-02-11T11:52:32;10.40;99.90
15343;DHT22;7771;48.478;8.936;2023-02-11T11:54:55;10.50;99.90
15343;DHT22;7771;48.478;8.936;2023-02-11T11:57:23;10.50;99.90
15343;DHT22;7771;48.478;8.936;2023-02-11T11:59:49;10.60;99.90
15343;DHT22;7771;48.478;8.936;2023-02-11T12:05:13;10.80;99.90
15343;DHT22;7771;48.478;8.936;2023-02-11T12:07:45;10.80;99.90
15343;DHT22;7771;48.478;8.936;2023-02-11T12:10:35;10.90;99.90
15343;DHT22;7771;48.478;8.936;2023-02-11T12:13:06;11.00;99.90
15343;DHT22;7771;48.478;8.936;2023-02-11T12:15:31;11.10;99.90
15343;DHT22;7771;48.478;8.936;2023-02-11T12:18:02;11.20;99.90
15343;DHT22;7771;48.478;8.936;2023-02-11T12:21:05;11.10;99.90
15343;DHT22;7771;48.478;8.936;2023-02-11T12:23:20;11.30;99.90
15343;DHT22;7771;48.478;8.936;2023-02-11T12:25:47;11.30;99.80
15343;DHT22;7771;48.478;8.936;2023-02-11T12:28:52;11.30;99.90
15343;DHT22;7771;48.478;8.936;2023-02-11T12:31:25;11.40;99.90
15343;DHT22;7771;48.478;8.936;2023-02-11T12:34:12;11.40;99.80
15343;DHT22;7771;48.478;8.936;2023-02-11T12:36:54;11.50;99.80
15343;DHT22;7771;48.478;8.936;2023-02-11T12:39:25;11.60;99.60
15343;DHT22;7771;48.478;8.936;2023-02-11T12:42:01;11.60;99.20
15343;DHT22;7771;48.478;8.936;2023-02-11T12:47:27;11.60;99.10
15343;DHT22;7771;48.478;8.936;2023-02-11T12:50:01;11.70;98.90
15343;DHT22;7771;48.478;8.936;2023-02-11T12:52:34;11.70;98.60
15343;DHT22;7771;48.478;8.936;2023-02-11T12:55:00;11.70;98.60
15343;DHT22;7771;48.478;8.936;2023-02-11T12:57:28;11.70;98.40
15343;DHT22;7771;48.478;8.936;2023-02-11T12:59:57;11.60;98.50
15343;DHT22;7771;48.478;8.936;2023-02-11T13:02:32;11.60;98.50
15343;DHT22;7771;48.478;8.936;2023-02-11T13:05:04;11.50;98.70
15343;DHT22;7771;48.478;8.936;2023-02-11T13:07:34;11.60;98.60
15343;DHT22;7771;48.478;8.936;2023-02-11T13:10:01;11.60;98.50
15343;DHT22;7771;48.478;8.936;2023-02-11T13:12:32;11.60;98.50
15343;DHT22;7771;48.478;8.936;2023-02-11T13:15:06;11.70;98.60
15343;DHT22;7771;48.478;8.936;2023-02-11T13:17:39;11.70;98.30
15343;DHT22;7771;48.478;8.936;2023-02-11T13:20:22;11.70;97.90
15343;DHT22;7771;48.478;8.936;2023-02-11T13:22:54;11.70;98.10
15343;DHT22;7771;48.478;8.936;2023-02-11T13:25:21;11.70;98.60
15343;DHT22;7771;48.478;8.936;2023-02-11T13:27:53;11.70;98.90
15343;DHT22;7771;48.478;8.936;2023-02-11T13:30:26;11.70;98.90
15343;DHT22;7771;48.478;8.936;2023-02-11T13:35:42;11.70;98.90
15343;DHT22;7771;48.478;8.936;2023-02-11T13:38:17;11.60;98.80
15343;DHT22;7771;48.478;8.936;2023-02-11T13:40:43;11.60;99.30
15343;DHT22;7771;48.478;8.936;2023-02-11T13:43:23;11.60;99.40
15343;DHT22;7771;48.478;8.936;2023-02-11T13:45:50;11.50;99.50
15343;DHT22;7771;48.478;8.936;2023-02-11T13:48:24;11.50;99.50
15343;DHT22;7771;48.478;8.936;2023-02-11T13:50:54;11.40;99.60
15343;DHT22;7771;48.478;8.936;2023-02-11T13:53:20;11.40;99.60
15343;DHT22;7771;48.478;8.936;2023-02-11T13:55:47;11.30;99.30
15343;DHT22;7771;48.478;8.936;2023-02-11T13:58:35;11.30;99.30
15343;DHT22;7771;48.478;8.936;2023-02-11T14:01:02;11.30;99.00
15343;DHT22;7771;48.478;8.936;2023-02-11T14:03:33;11.20;99.20
15343;DHT22;7771;48.478;8.936;2023-02-11T14:06:12;11.10;99.50
15343;DHT22;7771;48.478;8.936;2023-02-11T14:08:58;11.00;99.70
15343;DHT22;7771;48.478;8.936;2023-02-11T14:14:18;11.00;99.90
15343;DHT22;7771;48.478;8.936;2023-02-11T14:19:30;10.90;99.90
15343;DHT22;7771;48.478;8.936;2023-02-11T14:22:00;10.90;99.80
15343;DHT22;7771;48.478;8.936;2023-02-11T14:24:39;10.80;99.90
15343;DHT22;7771;48.478;8.936;2023-02-11T14:27:06;10.80;99.90
15343;DHT22;7771;48.478;8.936;2023-02-11T14:32:16;10.70;99.90
15343;DHT22;7771;48.478;8.936;2023-02-11T14:35:04;10.70;99.90
15343;DHT22;7771;48.478;8.936;2023-02-11T14:40:17;10.70;99.90
15343;DHT22;7771;48.478;8.936;2023-02-11T14:42:42;10.60;99.90
15343;DHT22;7771;48.478;8.936;2023-02-11T14:45:10;10.60;99.90
15343;DHT22;7771;48.478;8.936;2023-02-11T14:47:41;10.60;99.90
15343;DHT22;7771;48.478;8.936;2023-02-11T14:50:13;10.60;99.90
15343;DHT22;7771;48.478;8.936;2023-02-11T14:52:35;10.60;99.90
15343;DHT22;7771;48.478;8.936;2023-02-11T14:57:36;10.50;99.90
15343;DHT22;7771;48.478;8.936;2023-02-11T15:00:13;10.50;99.90
15343;DHT22;7771;48.478;8.936;2023-02-11T15:02:33;10.50;99.90
15343;DHT22;7771;48.478;8.936;2023-02-11T15:05:21;10.50;99.90
15343;DHT22;7771;48.478;8.936;2023-02-11T15:07:50;10.50;99.90
15343;DHT22;7771;48.478;8.936;2023-02-11T15:10:18;10.50;99.90
15343;DHT22;7771;48.478;8.936;2023-02-11T15:12:44;10.50;99.90
15343;DHT22;7771;48.478;8.936;2023-02-11T15:15:11;10.50;99.90
15343;DHT22;7771;48.478;8.936;2023-02-11T15:17:45;10.50;99.90
15343;DHT22;7771;48.478;8.936;2023-02-11T15:20:21;10.50;99.90
15343;DHT22;7771;48.478;8.936;2023-02-11T15:22:46;10.40;99.90
15343;DHT22;7771;48.478;8.936;2023-02-11T15:25:15;10.40;99.90
15343;DHT22;7771;48.478;8.936;2023-02-11T15:27:43;10.40;99.90
15343;DHT22;7771;48.478;8.936;2023-02-11T15:33:02;10.30;99.90
15343;DHT22;7771;48.478;8.936;2023-02-11T15:35:29;10.20;99.90
15343;DHT22;7771;48.478;8.936;2023-02-11T15:37:55;10.20;99.90
15343;DHT22;7771;48.478;8.936;2023-02-11T15:40:24;10.20;99.90
15343;DHT22;7771;48.478;8.936;2023-02-11T15:42:54;10.20;99.90
15343;DHT22;7771;48.478;8.936;2023-02-11T15:45:21;10.20;99.90
15343;DHT22;7771;48.478;8.936;2023-02-11T15:47:48;10.10;99.90
15343;DHT22;7771;48.478;8.936;2023-02-11T15:50:26;10.10;99.90
15343;DHT22;7771;48.478;8.936;2023-02-11T15:52:55;10.10;99.90
15343;DHT22;7771;48.478;8.936;2023-02-11T15:55:22;10.00;99.90
15343;DHT22;7771;48.478;8.936;2023-02-11T15:57:52;10.00;99.90
15343;DHT22;7771;48.478;8.936;2023-02-11T16:00:18;10.00;99.90
15343;DHT22;7771;48.478;8.936;2023-02-11T16:02:44;10.00;99.90
15343;DHT22;7771;48.478;8.936;2023-02-11T16:05:23;10.10;99.90
15343;DHT22;7771;48.478;8.936;2023-02-11T16:07:46;9.90;99.90
15343;DHT22;7771;48.478;8.936;2023-02-11T16:10:30;9.90;99.90
15343;DHT22;7771;48.478;8.936;2023-02-11T16:15:48;9.60;99.90
15343;DHT22;7771;48.478;8.936;2023-02-11T16:18:20;9.60;99.90
15343;DHT22;7771;48.478;8.936;2023-02-11T16:20:46;9.50;99.90
15343;DHT22;7771;48.478;8.936;2023-02-11T16:23:16;9.50;99.90
15343;DHT22;7771;48.478;8.936;2023-02-11T16:25:40;9.40;99.90
15343;DHT22;7771;48.478;8.936;2023-02-11T16:28:11;9.30;99.90
15343;DHT22;7771;48.478;8.936;2023-02-11T16:30:35;9.20;99.90
15343;DHT22;7771;48.478;8.936;2023-02-11T16:33:02;9.10;99.90
15343;DHT22;7771;48.478;8.936;2023-02-11T16:35:29;9.00;99.90
15343;DHT22;7771;48.478;8.936;2023-02-11T16:37:55;9.00;99.90
15343;DHT22;7771;48.478;8.936;2023-02-11T16:40:22;8.90;99.90
15343;DHT22;7771;48.478;8.936;2023-02-11T16:42:49;8.90;99.90
15343;DHT22;7771;48.478;8.936;2023-02-11T16:45:16;8.70;99.90
15343;DHT22;7771;48.478;8.936;2023-02-11T16:47:42;8.70;99.90
15343;DHT22;7771;48.478;8.936;2023-02-11T16:50:10;8.70;99.90
15343;DHT22;7771;48.478;8.936;2023-02-11T16:52:36;8.60;99.90
15343;DHT22;7771;48.478;8.936;2023-02-11T16:55:04;8.60;99.90
15343;DHT22;7771;48.478;8.936;2023-02-11T16:57:31;8.60;99.90
15343;DHT22;7771;48.478;8.936;2023-02-11T16:59:58;8.50;99.90
15343;DHT22;7771;48.478;8.936;2023-02-11T17:02:27;8.40;99.90
15343;DHT22;7771;48.478;8.936;2023-02-11T17:04:54;8.40;99.90
15343;DHT22;7771;48.478;8.936;2023-02-11T17:07:21;8.30;99.90